Time;durP1;ratioP1;P1;durP2;ratioP2;P2;SDS_P1;SDS_P2;PMS_P1;PMS_P2;Temp;Humidity;BMP_temperature;BMP_pressure;BME280_temperature;BME280_humidity;BME280_pressure;Samples;Min_cycle;Max_cycle;Signal;HPM_P1;HPM_P2
2021/01/27 05:02:43;;;;;;;58.20;29.58;;;1.90;99.90;;;;;;5040372;23;20249;-70
2021/01/27 05:05:12;;;;;;;64.85;28.25;;;1.90;99.90;;;;;;4955191;29;20548;-71
2021/01/27 05:07:54;;;;;;;69.43;29.38;;;1.90;99.90;;;;;;4953815;28;20210;-70
2021/01/27 05:10:23;;;;;;;61.03;29.00;;;1.90;99.90;;;;;;4951974;29;20573;-70
2021/01/27 05:12:53;;;;;;;68.15;33.00;;;1.90;99.90;;;;;;4934858;29;20686;-71
2021/01/27 05:15:22;;;;;;;69.80;33.88;;;1.90;99.90;;;;;;4935571;29;20309;-70
2021/01/27 05:17:51;;;;;;;67.38;33.75;;;2.00;99.90;;;;;;4935817;29;20249;-70
2021/01/27 05:20:19;;;;;;;73.70;34.13;;;2.00;99.90;;;;;;4935094;29;20208;-70
2021/01/27 05:22:46;;;;;;;66.03;33.60;;;2.00;99.90;;;;;;4933292;29;20202;-70
2021/01/27 05:25:20;;;;;;;82.68;32.25;;;2.00;99.90;;;;;;4935228;29;20206;-71
2021/01/27 05:27:47;;;;;;;76.25;32.78;;;2.00;99.90;;;;;;4935934;29;20217;-71
2021/01/27 05:30:23;;;;;;;74.03;34.05;;;2.00;99.90;;;;;;4934811;29;20232;-71
2021/01/27 05:32:54;;;;;;;74.68;31.40;;;2.00;99.90;;;;;;4935238;29;20233;-70
2021/01/27 05:35:34;;;;;;;75.68;34.35;;;2.00;99.90;;;;;;4935637;29;20273;-70
2021/01/27 05:38:18;;;;;;;73.43;32.20;;;2.00;99.90;;;;;;4935182;29;20194;-71
2021/01/27 05:40:45;;;;;;;70.90;32.85;;;2.00;99.90;;;;;;4934792;29;20230;-71
2021/01/27 05:43:13;;;;;;;72.63;31.73;;;2.10;99.90;;;;;;4934831;29;20206;-70
2021/01/27 05:45:42;;;;;;;69.18;33.42;;;2.10;99.90;;;;;;4935032;29;20206;-70
2021/01/27 05:48:24;;;;;;;72.85;32.90;;;2.10;99.90;;;;;;4935118;29;20217;-75
2021/01/27 05:50:52;;;;;;;68.13;32.35;;;2.10;99.90;;;;;;4936028;29;20232;-75
2021/01/27 05:53:21;;;;;;;73.20;32.97;;;2.10;99.90;;;;;;4936752;29;20260;-75
2021/01/27 05:56:06;;;;;;;69.55;33.03;;;2.10;99.90;;;;;;4936532;29;20210;-75
2021/01/27 05:58:34;;;;;;;66.43;32.83;;;2.10;99.90;;;;;;4936385;29;20214;-75
2021/01/27 06:01:19;;;;;;;69.03;33.28;;;2.10;99.90;;;;;;4936069;28;20241;-75
2021/01/27 06:03:56;;;;;;;75.10;32.75;;;2.20;99.90;;;;;;4936034;29;20213;-74
2021/01/27 06:06:23;;;;;;;68.65;31.25;;;2.10;99.90;;;;;;4928361;29;20213;-75
2021/01/27 06:08:51;;;;;;;64.00;31.63;;;2.10;99.90;;;;;;4935841;29;20221;-74
2021/01/27 06:11:18;;;;;;;68.28;31.70;;;2.10;99.90;;;;;;4936802;29;20228;-74
2021/01/27 06:13:44;;;;;;;71.18;32.53;;;2.20;99.90;;;;;;4936239;29;20209;-74
2021/01/27 06:16:22;;;;;;;69.93;33.42;;;2.10;99.90;;;;;;4939946;29;20266;-73
2021/01/27 06:18:49;;;;;;;67.03;32.00;;;2.20;99.90;;;;;;4940377;29;20210;-74
2021/01/27 06:21:40;;;;;;;69.97;33.15;;;2.20;99.90;;;;;;4940333;29;20225;-74
2021/01/27 06:24:19;;;;;;;75.05;35.42;;;2.20;99.90;;;;;;4939616;29;20309;-70
2021/01/27 06:27:01;;;;;;;77.97;35.55;;;2.20;99.90;;;;;;4929374;29;20209;-71
2021/01/27 06:29:53;;;;;;;66.68;32.70;;;2.20;99.90;;;;;;4938469;29;20206;-73
2021/01/27 06:32:32;;;;;;;73.65;34.28;;;2.20;99.90;;;;;;4938044;29;20256;-70
2021/01/27 06:35:11;;;;;;;72.55;34.83;;;2.20;99.90;;;;;;4944732;29;20202;-71
2021/01/27 06:37:55;;;;;;;83.70;35.72;;;2.20;99.90;;;;;;4944102;29;20225;-70
2021/01/27 06:40:32;;;;;;;69.97;33.45;;;2.20;99.90;;;;;;4943438;29;20201;-72
2021/01/27 06:43:35;;;;;;;78.03;36.53;;;2.20;99.90;;;;;;4941998;28;20294;-70
2021/01/27 06:46:22;;;;;;;69.07;33.72;;;2.20;99.90;;;;;;4938510;29;20300;-70
2021/01/27 06:49:18;;;;;;;73.13;36.72;;;2.20;99.90;;;;;;4938322;29;20518;-70
2021/01/27 06:52:10;;;;;;;75.82;36.05;;;2.30;99.90;;;;;;4935394;28;20233;-70
2021/01/27 06:55:02;;;;;;;70.90;34.90;;;2.20;99.90;;;;;;4938500;29;20225;-70
2021/01/27 06:57:47;;;;;;;62.33;33.17;;;2.30;99.90;;;;;;4938266;29;20228;-68
2021/01/27 07:00:30;;;;;;;69.95;33.05;;;2.30;99.90;;;;;;4937999;29;20197;-69
2021/01/27 07:03:16;;;;;;;69.78;34.30;;;2.20;99.90;;;;;;4937949;29;20260;-68
2021/01/27 07:06:08;;;;;;;75.82;36.72;;;2.20;99.90;;;;;;4935435;29;20229;-69
2021/01/27 07:08:50;;;;;;;66.07;32.13;;;2.20;99.90;;;;;;4929218;29;20213;-71
2021/01/27 07:11:28;;;;;;;70.00;34.05;;;2.20;99.90;;;;;;4936903;29;20226;-69
2021/01/27 07:14:22;;;;;;;64.80;34.22;;;2.20;99.90;;;;;;4937171;29;20828;-69
2021/01/27 07:17:09;;;;;;;67.32;33.58;;;2.20;99.90;;;;;;4934464;29;20249;-69
2021/01/27 07:20:09;;;;;;;62.80;32.65;;;2.20;99.90;;;;;;4936469;29;20210;-69
2021/01/27 07:22:43;;;;;;;59.05;33.78;;;2.20;99.90;;;;;;4913346;29;20518;-68
2021/01/27 07:25:14;;;;;;;67.43;35.80;;;2.20;99.90;;;;;;4919748;29;20218;-68
2021/01/27 07:27:46;;;;;;;71.80;36.47;;;2.20;99.90;;;;;;4937817;29;20210;-68
2021/01/27 07:30:17;;;;;;;69.53;35.15;;;2.30;99.90;;;;;;4938159;29;20202;-69
2021/01/27 07:32:50;;;;;;;67.03;36.85;;;2.30;99.90;;;;;;4938309;29;20244;-68
2021/01/27 07:35:21;;;;;;;55.60;31.10;;;2.30;99.90;;;;;;4937999;29;20209;-68
2021/01/27 07:37:51;;;;;;;58.20;35.78;;;2.30;99.90;;;;;;4937235;29;20214;-68
2021/01/27 07:40:22;;;;;;;58.50;33.15;;;2.30;99.90;;;;;;4937980;29;20300;-68
2021/01/27 07:42:56;;;;;;;64.57;36.90;;;2.30;99.90;;;;;;4936903;29;20528;-68
2021/01/27 07:45:25;;;;;;;60.08;31.95;;;2.40;99.90;;;;;;4937044;29;20498;-68
2021/01/27 07:47:59;;;;;;;62.25;33.38;;;2.40;99.90;;;;;;4936515;28;20210;-68
2021/01/27 07:50:26;;;;;;;59.00;32.17;;;2.30;99.90;;;;;;4936929;29;20229;-69
2021/01/27 07:53:04;;;;;;;51.58;31.75;;;2.30;99.90;;;;;;4936322;29;20245;-68
2021/01/27 07:55:38;;;;;;;55.35;31.42;;;2.30;99.90;;;;;;4936973;29;20197;-68
2021/01/27 07:58:10;;;;;;;49.17;29.85;;;2.30;99.90;;;;;;4937095;29;20205;-73
2021/01/27 08:00:43;;;;;;;57.13;31.48;;;2.30;99.90;;;;;;4928700;29;20245;-68
2021/01/27 08:03:22;;;;;;;63.85;31.45;;;2.30;99.90;;;;;;4936204;29;20281;-70
2021/01/27 08:05:50;;;;;;;47.90;28.95;;;2.30;99.90;;;;;;4936291;29;20214;-70
2021/01/27 08:08:19;;;;;;;57.17;30.23;;;2.30;99.90;;;;;;4936225;29;20202;-72
2021/01/27 08:10:47;;;;;;;61.38;33.65;;;2.30;99.90;;;;;;4936565;29;20226;-72
2021/01/27 08:13:35;;;;;;;53.25;31.02;;;2.30;99.90;;;;;;4936031;28;20250;-72
2021/01/27 08:16:06;;;;;;;49.17;27.65;;;2.30;99.90;;;;;;4936800;29;20218;-74
2021/01/27 08:18:33;;;;;;;48.13;28.13;;;2.30;99.90;;;;;;4936379;29;20202;-72
2021/01/27 08:21:28;;;;;;;50.30;27.58;;;2.40;99.90;;;;;;4936534;29;20521;-75
2021/01/27 08:23:55;;;;;;;49.70;28.90;;;2.30;99.90;;;;;;4922901;28;20257;-73
2021/01/27 08:26:49;;;;;;;47.20;29.40;;;2.40;99.90;;;;;;4935414;29;20617;-72
2021/01/27 08:29:27;;;;;;;49.70;27.38;;;2.40;99.90;;;;;;4930279;29;20206;-73
2021/01/27 08:32:25;;;;;;;101.10;54.47;;;2.40;99.90;;;;;;4935079;29;20234;-74
2021/01/27 08:34:53;;;;;;;75.00;44.85;;;2.40;99.90;;;;;;4936238;29;20210;-73
2021/01/27 08:37:22;;;;;;;100.72;54.60;;;2.40;99.90;;;;;;4935365;29;20552;-74
2021/01/27 08:39:48;;;;;;;79.47;45.17;;;2.40;99.90;;;;;;4936867;29;20257;-74
2021/01/27 08:42:25;;;;;;;63.75;35.22;;;2.40;99.90;;;;;;4935734;29;20229;-73
2021/01/27 08:44:52;;;;;;;50.95;31.80;;;2.40;99.90;;;;;;4938396;29;20265;-73
2021/01/27 08:47:23;;;;;;;49.78;29.52;;;2.40;99.90;;;;;;4937453;29;20205;-73
2021/01/27 08:49:52;;;;;;;49.88;30.60;;;2.40;99.90;;;;;;4942604;29;20273;-73
2021/01/27 08:52:40;;;;;;;44.47;26.77;;;2.40;99.90;;;;;;4944852;29;20270;-74
2021/01/27 08:55:33;;;;;;;41.92;24.98;;;2.40;99.90;;;;;;4939755;29;20280;-70
2021/01/27 08:58:35;;;;;;;44.67;25.40;;;2.40;99.90;;;;;;4950831;28;20214;-73
2021/01/27 09:01:07;;;;;;;37.70;25.00;;;2.40;99.90;;;;;;4949138;29;20716;-73
2021/01/27 09:03:59;;;;;;;40.80;24.80;;;2.40;99.90;;;;;;4948829;29;20198;-73
2021/01/27 09:06:34;;;;;;;42.05;24.80;;;2.40;99.90;;;;;;4946555;29;20218;-73
2021/01/27 09:09:11;;;;;;;42.15;25.95;;;2.40;99.90;;;;;;4946887;28;20298;-73
2021/01/27 09:11:37;;;;;;;37.72;22.92;;;2.40;99.90;;;;;;4940579;29;20268;-71
2021/01/27 09:14:06;;;;;;;39.67;22.25;;;2.50;99.90;;;;;;4943341;29;20213;-74
2021/01/27 09:16:34;;;;;;;36.22;22.98;;;2.50;99.90;;;;;;4938987;29;20210;-73
2021/01/27 09:19:04;;;;;;;40.85;23.63;;;2.50;99.90;;;;;;4935132;29;20582;-74
2021/01/27 09:21:32;;;;;;;35.35;21.95;;;2.50;99.90;;;;;;4930214;29;20222;-74
2021/01/27 09:24:03;;;;;;;36.65;21.75;;;2.50;99.90;;;;;;4919381;29;20218;-73
2021/01/27 09:26:39;;;;;;;37.72;24.02;;;2.50;99.90;;;;;;4916802;29;20210;-74
2021/01/27 09:29:12;;;;;;;33.97;20.23;;;2.60;99.90;;;;;;4928352;29;20293;-73
2021/01/27 09:31:40;;;;;;;39.45;22.17;;;2.60;99.90;;;;;;4935044;29;20240;-73
2021/01/27 09:34:21;;;;;;;30.73;20.25;;;2.60;99.90;;;;;;4935167;29;20214;-69
2021/01/27 09:36:49;;;;;;;29.05;20.20;;;2.60;99.90;;;;;;4935306;29;20213;-70
2021/01/27 09:39:26;;;;;;;33.25;18.90;;;2.80;99.90;;;;;;4934707;29;20614;-71
2021/01/27 09:41:52;;;;;;;31.88;19.88;;;2.80;99.90;;;;;;4934527;29;20221;-69
2021/01/27 09:44:26;;;;;;;31.67;19.23;;;2.80;99.90;;;;;;4935084;29;20202;-70
2021/01/27 09:46:53;;;;;;;29.08;17.15;;;2.90;99.90;;;;;;4934436;28;20206;-68
2021/01/27 09:49:20;;;;;;;26.63;17.58;;;2.90;99.90;;;;;;4934551;29;20258;-66
2021/01/27 09:51:53;;;;;;;24.33;14.88;;;2.90;99.90;;;;;;4933021;29;20634;-69
2021/01/27 09:54:22;;;;;;;27.13;16.20;;;3.00;99.90;;;;;;4934804;29;20227;-70
2021/01/27 09:56:52;;;;;;;21.77;14.65;;;3.10;99.90;;;;;;4934738;29;20217;-69
2021/01/27 09:59:19;;;;;;;23.92;15.82;;;3.20;99.90;;;;;;4934795;29;20206;-70
2021/01/27 10:01:48;;;;;;;23.67;13.95;;;3.30;99.90;;;;;;4934186;29;20237;-69
2021/01/27 10:04:17;;;;;;;22.60;13.90;;;3.40;99.90;;;;;;4935171;29;20567;-69
2021/01/27 10:06:47;;;;;;;20.17;14.25;;;3.40;99.90;;;;;;4933729;28;20214;-69
2021/01/27 10:09:18;;;;;;;21.20;13.15;;;3.50;99.90;;;;;;4938455;29;20206;-69
2021/01/27 10:11:46;;;;;;;15.82;12.90;;;3.50;99.90;;;;;;4940219;29;20230;-70
2021/01/27 10:14:15;;;;;;;17.42;12.40;;;3.50;99.90;;;;;;4941449;29;20216;-69
2021/01/27 10:16:54;;;;;;;21.60;13.13;;;3.50;99.90;;;;;;4940971;29;20201;-69
2021/01/27 10:19:25;;;;;;;17.75;12.45;;;3.50;99.90;;;;;;4941063;29;20210;-69
2021/01/27 10:21:54;;;;;;;17.98;11.45;;;3.50;99.90;;;;;;4939901;29;20221;-70
2021/01/27 10:24:43;;;;;;;17.92;11.25;;;3.60;99.90;;;;;;4940741;29;20606;-70
2021/01/27 10:27:15;;;;;;;16.63;12.57;;;3.70;99.90;;;;;;4939840;29;20213;-70
2021/01/27 10:29:41;;;;;;;26.10;16.52;;;3.70;99.90;;;;;;4940193;29;20201;-70
2021/01/27 10:32:20;;;;;;;18.83;12.23;;;3.70;99.90;;;;;;4940415;29;20233;-70
2021/01/27 10:34:48;;;;;;;15.27;10.98;;;3.80;99.90;;;;;;4940817;29;20208;-71
2021/01/27 10:37:31;;;;;;;15.20;10.43;;;3.80;99.90;;;;;;4940075;29;20591;-70
2021/01/27 10:40:32;;;;;;;19.20;12.30;;;3.80;99.90;;;;;;4935834;28;20265;-71
2021/01/27 10:43:01;;;;;;;17.70;12.38;;;3.80;99.90;;;;;;4940323;29;20205;-69
2021/01/27 10:45:35;;;;;;;17.52;13.73;;;3.80;99.90;;;;;;4939930;29;20217;-69
2021/01/27 10:48:07;;;;;;;15.80;12.30;;;3.90;99.90;;;;;;4937484;29;20227;-69
2021/01/27 10:50:36;;;;;;;18.30;11.90;;;3.90;99.90;;;;;;4939684;29;20288;-69
2021/01/27 10:53:05;;;;;;;17.45;11.75;;;3.90;99.90;;;;;;4939946;28;20708;-69
2021/01/27 10:55:33;;;;;;;16.55;11.52;;;3.90;99.90;;;;;;4940882;29;20209;-69
2021/01/27 10:58:05;;;;;;;14.98;10.80;;;3.90;99.90;;;;;;4940801;29;20206;-69
2021/01/27 11:00:31;;;;;;;16.00;12.55;;;3.90;99.90;;;;;;4940160;29;20280;-69
2021/01/27 11:02:57;;;;;;;19.40;13.13;;;4.00;99.90;;;;;;4940343;29;20206;-73
2021/01/27 11:05:23;;;;;;;15.75;11.52;;;4.00;99.90;;;;;;4940649;28;20213;-71
2021/01/27 11:07:50;;;;;;;12.20;10.43;;;4.00;99.90;;;;;;4939734;29;20547;-70
2021/01/27 11:10:17;;;;;;;13.27;10.48;;;4.10;99.90;;;;;;4940295;29;20205;-69
2021/01/27 11:12:43;;;;;;;14.15;10.65;;;4.20;99.90;;;;;;4939761;29;20222;-69
2021/01/27 11:15:11;;;;;;;13.20;9.70;;;4.30;99.90;;;;;;4940922;29;20202;-70
2021/01/27 11:17:37;;;;;;;12.40;10.70;;;4.40;99.90;;;;;;4941215;28;20225;-70
2021/01/27 11:20:04;;;;;;;10.40;9.30;;;4.40;99.90;;;;;;4942859;29;20202;-70
2021/01/27 11:22:30;;;;;;;11.07;8.65;;;4.50;99.90;;;;;;4941006;29;20202;-71
2021/01/27 11:24:57;;;;;;;15.35;9.15;;;4.50;99.90;;;;;;4940193;29;20671;-72
2021/01/27 11:27:23;;;;;;;12.13;9.52;;;4.60;99.90;;;;;;4944521;29;20225;-70
2021/01/27 11:29:49;;;;;;;12.55;9.88;;;4.60;99.90;;;;;;4942975;29;20198;-71
2021/01/27 11:32:16;;;;;;;10.27;8.52;;;4.70;99.90;;;;;;4941592;29;20240;-71
2021/01/27 11:34:42;;;;;;;12.45;8.02;;;4.70;99.90;;;;;;4942195;29;20202;-70
2021/01/27 11:37:08;;;;;;;9.02;8.00;;;4.80;99.90;;;;;;4939020;29;20575;-70
2021/01/27 11:39:34;;;;;;;10.50;7.68;;;4.80;99.90;;;;;;4938968;29;20214;-69
2021/01/27 11:42:02;;;;;;;9.35;8.25;;;4.80;99.90;;;;;;4939545;29;20222;-73
2021/01/27 11:44:28;;;;;;;9.30;7.55;;;4.80;99.90;;;;;;4940506;29;20206;-69
2021/01/27 11:46:54;;;;;;;33.03;19.25;;;4.80;99.90;;;;;;4939902;28;20217;-69
2021/01/27 11:49:20;;;;;;;36.50;22.45;;;4.90;99.90;;;;;;4939530;29;20198;-69
2021/01/27 11:51:47;;;;;;;12.88;9.68;;;4.90;99.90;;;;;;4938080;29;20317;-69
2021/01/27 11:54:13;;;;;;;13.43;8.18;;;5.00;99.90;;;;;;4936901;29;20205;-69
2021/01/27 11:56:40;;;;;;;9.73;7.95;;;5.10;99.90;;;;;;4937162;29;20879;-69
2021/01/27 11:59:08;;;;;;;9.00;7.50;;;5.20;99.90;;;;;;4936176;28;20214;-69
2021/01/27 12:01:35;;;;;;;10.60;8.27;;;5.30;99.90;;;;;;4935171;29;20238;-69
2021/01/27 12:04:02;;;;;;;17.98;11.80;;;5.30;99.90;;;;;;4936690;29;20252;-70
2021/01/27 12:06:28;;;;;;;13.65;9.35;;;5.40;99.90;;;;;;4935762;29;20241;-71
2021/01/27 12:08:54;;;;;;;10.88;8.07;;;5.40;99.90;;;;;;4935843;28;20646;-69
2021/01/27 12:11:20;;;;;;;9.80;8.00;;;5.50;99.90;;;;;;4936852;29;20687;-69
2021/01/27 12:13:47;;;;;;;9.75;7.95;;;5.60;99.90;;;;;;4936621;28;20237;-69
2021/01/27 12:16:14;;;;;;;8.45;6.93;;;5.60;99.90;;;;;;4936418;29;20206;-70
2021/01/27 12:18:42;;;;;;;11.30;8.00;;;5.60;99.90;;;;;;4935981;29;20566;-69
2021/01/27 12:21:09;;;;;;;9.30;7.68;;;5.70;99.90;;;;;;4935832;29;20222;-69
2021/01/27 12:23:35;;;;;;;10.13;9.13;;;5.60;99.90;;;;;;4934895;29;20308;-71
2021/01/27 12:26:01;;;;;;;8.77;7.93;;;5.70;99.90;;;;;;4935719;28;20564;-69
2021/01/27 12:28:27;;;;;;;10.13;7.80;;;5.80;99.90;;;;;;4936254;29;20234;-69
2021/01/27 12:30:53;;;;;;;12.68;8.20;;;5.80;99.90;;;;;;4935889;29;20706;-69
2021/01/27 12:33:20;;;;;;;8.38;7.40;;;5.80;99.90;;;;;;4935913;29;20636;-73
2021/01/27 12:35:47;;;;;;;8.40;7.47;;;5.80;99.90;;;;;;4935601;29;21001;-73
2021/01/27 12:38:14;;;;;;;7.63;6.93;;;5.80;99.90;;;;;;4939248;29;20572;-73
2021/01/27 12:40:40;;;;;;;9.63;8.38;;;5.80;99.90;;;;;;4936009;29;20252;-71
2021/01/27 12:43:06;;;;;;;8.02;7.32;;;5.80;99.90;;;;;;4936582;29;20313;-72
2021/01/27 12:45:33;;;;;;;9.32;7.82;;;5.60;99.90;;;;;;4936363;29;20579;-69
2021/01/27 12:47:59;;;;;;;8.57;7.00;;;5.50;99.90;;;;;;4933883;28;20629;-68
2021/01/27 12:50:26;;;;;;;9.00;8.10;;;5.50;99.90;;;;;;4931615;29;20237;-69
2021/01/27 12:52:52;;;;;;;8.45;7.65;;;5.40;99.90;;;;;;4934150;29;20222;-72
2021/01/27 12:55:21;;;;;;;7.93;6.90;;;5.40;99.90;;;;;;4935744;29;20289;-72
2021/01/27 12:57:47;;;;;;;10.52;9.00;;;5.30;99.90;;;;;;4935108;29;20524;-72
2021/01/27 13:00:19;;;;;;;12.75;11.40;;;5.30;99.90;;;;;;4934981;28;20212;-72
2021/01/27 13:02:46;;;;;;;10.48;9.27;;;5.20;99.90;;;;;;4934745;29;20210;-72
2021/01/27 13:05:13;;;;;;;9.80;8.85;;;5.20;99.90;;;;;;4933538;29;20210;-73
2021/01/27 13:07:40;;;;;;;9.10;7.57;;;5.10;99.90;;;;;;4932778;29;20301;-71
2021/01/27 13:10:08;;;;;;;7.70;7.10;;;5.10;99.90;;;;;;4930248;28;20225;-72
2021/01/27 13:12:36;;;;;;;13.15;8.98;;;5.10;99.90;;;;;;4934374;29;20230;-69
2021/01/27 13:15:04;;;;;;;8.57;7.82;;;5.10;99.90;;;;;;4935410;29;20228;-68
2021/01/27 13:17:30;;;;;;;7.70;6.93;;;5.10;99.90;;;;;;4934427;29;20282;-68
2021/01/27 13:19:56;;;;;;;11.88;7.00;;;5.10;99.90;;;;;;4934880;29;20214;-71
2021/01/27 13:22:23;;;;;;;8.10;7.38;;;5.00;99.90;;;;;;4928510;29;20250;-69
2021/01/27 13:24:50;;;;;;;8.43;7.53;;;5.00;99.90;;;;;;4934808;29;20213;-68
2021/01/27 13:27:16;;;;;;;10.75;8.93;;;5.00;99.90;;;;;;4933805;29;20213;-68
2021/01/27 13:29:42;;;;;;;12.05;10.93;;;5.00;99.90;;;;;;4934795;29;20285;-69
2021/01/27 13:32:08;;;;;;;10.50;8.32;;;4.90;99.90;;;;;;4933097;29;20225;-68
2021/01/27 13:34:35;;;;;;;12.00;10.65;;;4.90;99.90;;;;;;4933453;29;20218;-68
2021/01/27 13:37:01;;;;;;;10.85;9.85;;;4.80;99.90;;;;;;4932674;29;20206;-70
2021/01/27 13:39:27;;;;;;;18.55;16.65;;;4.90;99.90;;;;;;4934175;29;20342;-68
2021/01/27 13:41:54;;;;;;;13.20;11.45;;;4.80;99.90;;;;;;4931758;29;20559;-69
2021/01/27 13:44:22;;;;;;;12.77;10.27;;;4.80;99.90;;;;;;4933351;29;20206;-69
2021/01/27 13:46:49;;;;;;;10.70;8.50;;;4.80;99.90;;;;;;4934136;29;20202;-69
2021/01/27 13:49:15;;;;;;;12.35;11.07;;;4.80;99.90;;;;;;4933414;28;20214;-68
2021/01/27 13:51:41;;;;;;;10.23;9.05;;;4.80;99.90;;;;;;4931616;29;20238;-69
2021/01/27 13:54:07;;;;;;;13.20;11.43;;;4.70;99.90;;;;;;4934752;29;20332;-72
2021/01/27 13:56:33;;;;;;;16.00;11.67;;;4.70;99.90;;;;;;4936748;29;20564;-69
2021/01/27 13:59:00;;;;;;;13.65;11.13;;;4.70;99.90;;;;;;4942593;29;20946;-70
2021/01/27 14:01:27;;;;;;;12.75;10.52;;;4.70;99.90;;;;;;4942630;29;20240;-68
2021/01/27 14:03:53;;;;;;;18.25;16.35;;;4.80;99.90;;;;;;4941875;29;20206;-71
2021/01/27 14:06:19;;;;;;;14.85;11.70;;;4.70;99.90;;;;;;4943359;29;20210;-68
2021/01/27 14:08:45;;;;;;;19.15;14.63;;;4.70;99.90;;;;;;4939162;29;20205;-69
2021/01/27 14:11:11;;;;;;;10.60;9.15;;;4.70;99.90;;;;;;4937346;29;20229;-70
2021/01/27 14:13:37;;;;;;;10.68;9.07;;;4.60;99.90;;;;;;4934707;28;20242;-69
2021/01/27 14:16:05;;;;;;;7.00;6.32;;;4.60;99.90;;;;;;4935554;29;20214;-69
2021/01/27 14:18:32;;;;;;;17.30;14.32;;;4.60;99.90;;;;;;4934773;29;20268;-69
2021/01/27 14:20:58;;;;;;;20.02;13.90;;;4.50;99.90;;;;;;4934227;29;20226;-69
2021/01/27 14:23:24;;;;;;;13.10;10.40;;;4.50;99.90;;;;;;4929995;29;20208;-70
2021/01/27 14:25:50;;;;;;;13.68;10.45;;;4.50;99.90;;;;;;4933780;29;20216;-69
2021/01/27 14:28:16;;;;;;;12.05;10.32;;;4.50;99.90;;;;;;4932898;28;20217;-69
2021/01/27 14:30:45;;;;;;;9.63;8.10;;;4.40;99.90;;;;;;4930170;29;20921;-69
2021/01/27 14:33:12;;;;;;;11.05;9.52;;;4.40;99.90;;;;;;4933874;29;20281;-69
2021/01/27 14:35:47;;;;;;;9.50;8.57;;;4.40;99.90;;;;;;4931028;29;20297;-69
2021/01/27 14:38:17;;;;;;;7.55;6.25;;;4.40;99.90;;;;;;4933476;29;20213;-69
2021/01/27 14:40:43;;;;;;;7.32;6.68;;;4.30;99.90;;;;;;4930996;29;20317;-68
2021/01/27 14:43:10;;;;;;;6.60;6.10;;;4.30;99.90;;;;;;4922795;29;20213;-72
2021/01/27 14:45:36;;;;;;;7.90;7.15;;;4.30;99.90;;;;;;4930219;29;20238;-70
2021/01/27 14:48:03;;;;;;;15.30;12.93;;;4.30;99.90;;;;;;4932323;29;20210;-70
2021/01/27 14:50:30;;;;;;;7.53;6.82;;;4.20;99.90;;;;;;4933545;29;20258;-70
2021/01/27 14:52:56;;;;;;;10.18;7.70;;;4.20;99.90;;;;;;4932267;28;20221;-69
2021/01/27 14:55:23;;;;;;;7.72;6.97;;;4.20;99.90;;;;;;4935980;29;20202;-72
2021/01/27 14:57:49;;;;;;;7.80;7.10;;;4.10;99.90;;;;;;4937674;29;20212;-70
2021/01/27 15:00:16;;;;;;;6.90;6.25;;;4.10;99.90;;;;;;4936990;29;20671;-71
2021/01/27 15:02:42;;;;;;;7.95;7.15;;;4.10;99.90;;;;;;4937171;29;20206;-70
2021/01/27 15:05:09;;;;;;;7.20;6.60;;;4.10;99.90;;;;;;4934575;29;20651;-69
2021/01/27 15:07:36;;;;;;;7.75;6.95;;;4.10;99.90;;;;;;4935782;28;20213;-69
2021/01/27 15:10:04;;;;;;;7.13;6.43;;;4.00;99.90;;;;;;4937913;29;20206;-68
2021/01/27 15:12:31;;;;;;;11.23;9.60;;;4.00;99.90;;;;;;4936622;29;20226;-68
2021/01/27 15:14:57;;;;;;;8.68;7.88;;;4.00;99.90;;;;;;4936187;29;20224;-69
2021/01/27 15:17:23;;;;;;;8.00;7.20;;;4.00;99.90;;;;;;4936375;28;20710;-71
2021/01/27 15:19:49;;;;;;;8.60;7.80;;;4.00;99.90;;;;;;4937736;29;20202;-68
2021/01/27 15:22:16;;;;;;;8.90;7.13;;;4.00;99.90;;;;;;4931109;29;20226;-72
2021/01/27 15:24:43;;;;;;;12.55;8.85;;;4.00;99.90;;;;;;4936481;29;20214;-70
2021/01/27 15:27:09;;;;;;;8.65;7.13;;;4.00;99.90;;;;;;4937300;29;20210;-70
2021/01/27 15:29:35;;;;;;;7.68;6.88;;;3.90;99.90;;;;;;4937244;29;20214;-71
2021/01/27 15:32:02;;;;;;;8.35;7.53;;;3.90;99.90;;;;;;4935409;29;21837;-71
2021/01/27 15:34:28;;;;;;;7.82;7.00;;;3.90;99.90;;;;;;4936842;28;20215;-70
2021/01/27 15:36:55;;;;;;;10.52;7.22;;;3.90;99.90;;;;;;4936307;29;20256;-70
2021/01/27 15:39:22;;;;;;;8.60;7.68;;;3.80;99.90;;;;;;4936497;29;20297;-70
2021/01/27 15:41:49;;;;;;;8.02;7.30;;;3.80;99.90;;;;;;4936193;29;20823;-70
2021/01/27 15:44:16;;;;;;;7.97;7.28;;;3.80;99.90;;;;;;4936373;29;20206;-71
2021/01/27 15:46:43;;;;;;;7.78;7.07;;;3.70;99.90;;;;;;4936057;29;20201;-70
2021/01/27 15:49:09;;;;;;;15.07;11.90;;;3.80;99.90;;;;;;4934823;29;20213;-71
2021/01/27 15:51:36;;;;;;;12.43;11.10;;;3.80;99.90;;;;;;4935235;29;20707;-71
2021/01/27 15:54:02;;;;;;;19.00;14.48;;;3.70;99.90;;;;;;4934952;29;20657;-69
2021/01/27 15:56:28;;;;;;;12.45;11.25;;;3.70;99.90;;;;;;4934149;29;20212;-72
2021/01/27 15:58:55;;;;;;;10.93;9.45;;;3.70;99.90;;;;;;4937049;28;20280;-68
2021/01/27 16:01:21;;;;;;;14.57;13.07;;;3.70;99.90;;;;;;4929313;29;20774;-68
2021/01/27 16:03:47;;;;;;;12.90;11.68;;;3.70;99.90;;;;;;4937220;29;20206;-69
2021/01/27 16:06:13;;;;;;;15.05;10.80;;;3.70;99.90;;;;;;4935898;29;20508;-69
2021/01/27 16:08:39;;;;;;;16.50;12.90;;;3.70;99.90;;;;;;4938235;28;20218;-69
2021/01/27 16:11:06;;;;;;;9.18;8.48;;;3.70;99.90;;;;;;4936494;29;20570;-73
2021/01/27 16:13:32;;;;;;;8.75;8.02;;;3.70;99.90;;;;;;4936562;29;20700;-72
2021/01/27 16:15:59;;;;;;;9.80;7.85;;;3.60;99.90;;;;;;4936635;29;20201;-73
2021/01/27 16:18:25;;;;;;;11.20;9.85;;;3.60;99.90;;;;;;4936379;29;20210;-72
2021/01/27 16:20:52;;;;;;;9.52;8.60;;;3.60;99.90;;;;;;4936281;29;20226;-73
2021/01/27 16:23:18;;;;;;;9.23;8.40;;;3.60;99.90;;;;;;4935695;29;20217;-75
2021/01/27 16:25:44;;;;;;;12.25;8.85;;;3.60;99.90;;;;;;4935168;28;20222;-74
2021/01/27 16:28:10;;;;;;;11.93;8.75;;;3.60;99.90;;;;;;4936711;29;20213;-74
2021/01/27 16:30:36;;;;;;;12.07;10.80;;;3.60;99.90;;;;;;4935491;29;20222;-73
2021/01/27 16:33:05;;;;;;;16.52;11.20;;;3.60;99.90;;;;;;4935610;29;20368;-75
2021/01/27 16:35:33;;;;;;;10.05;8.88;;;3.60;99.90;;;;;;4928326;29;20214;-73
2021/01/27 16:38:00;;;;;;;10.45;9.13;;;3.50;99.90;;;;;;4935550;28;20229;-76
2021/01/27 16:40:26;;;;;;;8.88;8.18;;;3.50;99.90;;;;;;4935028;29;20241;-75
2021/01/27 16:42:55;;;;;;;8.65;7.85;;;3.50;99.90;;;;;;4934612;29;20198;-75
2021/01/27 16:45:23;;;;;;;7.18;6.57;;;3.50;99.90;;;;;;4934559;29;20210;-71
2021/01/27 16:47:49;;;;;;;8.18;7.10;;;3.40;99.90;;;;;;4934344;28;20246;-75
2021/01/27 16:50:17;;;;;;;8.80;7.47;;;3.40;99.90;;;;;;4934293;29;20209;-73
2021/01/27 16:52:43;;;;;;;8.75;7.40;;;3.40;99.90;;;;;;4933918;29;20228;-73
2021/01/27 16:55:11;;;;;;;8.73;7.93;;;3.40;99.90;;;;;;4930726;29;20202;-73
2021/01/27 16:57:38;;;;;;;9.75;8.43;;;3.40;99.90;;;;;;4935251;29;20218;-73
2021/01/27 17:00:07;;;;;;;10.88;8.27;;;3.40;99.90;;;;;;4935760;29;20297;-73
2021/01/27 17:02:33;;;;;;;9.60;7.95;;;3.40;99.90;;;;;;4934890;29;20273;-73
2021/01/27 17:04:59;;;;;;;12.38;8.20;;;3.40;99.90;;;;;;4934618;29;20222;-73
2021/01/27 17:07:26;;;;;;;13.40;9.20;;;3.30;99.90;;;;;;4934238;29;20264;-72
2021/01/27 17:09:53;;;;;;;10.93;9.18;;;3.30;99.90;;;;;;4935862;29;20603;-73
2021/01/27 17:12:19;;;;;;;16.27;13.00;;;3.30;99.90;;;;;;4929545;29;20570;-72
2021/01/27 17:14:45;;;;;;;12.73;10.68;;;3.30;99.90;;;;;;4934620;29;20309;-72
2021/01/27 17:17:11;;;;;;;10.32;8.77;;;3.30;99.90;;;;;;4934806;28;20699;-72
2021/01/27 17:19:37;;;;;;;18.38;12.20;;;3.30;99.90;;;;;;4934680;29;20975;-73
2021/01/27 17:22:04;;;;;;;10.95;9.25;;;3.30;99.90;;;;;;4933822;29;20317;-72
2021/01/27 17:24:31;;;;;;;14.73;11.35;;;3.30;99.90;;;;;;4935024;29;20666;-73
2021/01/27 17:26:57;;;;;;;16.08;12.10;;;3.30;99.90;;;;;;4934781;29;20705;-73
2021/01/27 17:29:23;;;;;;;18.83;13.38;;;3.30;99.90;;;;;;4935461;29;20225;-72
2021/01/27 17:31:49;;;;;;;10.80;8.90;;;3.30;99.90;;;;;;4934159;29;20222;-72
2021/01/27 17:34:16;;;;;;;14.55;12.02;;;3.30;99.90;;;;;;4934928;29;20226;-72
2021/01/27 17:36:42;;;;;;;21.77;14.65;;;3.30;99.90;;;;;;4933378;29;20241;-72
2021/01/27 17:39:08;;;;;;;23.02;14.32;;;3.30;99.90;;;;;;4934938;29;20209;-72
2021/01/27 17:41:36;;;;;;;32.70;20.48;;;3.20;99.90;;;;;;4927067;29;20222;-71
2021/01/27 17:44:04;;;;;;;26.90;17.92;;;3.20;99.90;;;;;;4928784;29;20543;-72
2021/01/27 17:46:30;;;;;;;19.17;12.85;;;3.20;99.90;;;;;;4934001;28;20689;-72
2021/01/27 17:48:56;;;;;;;14.10;12.50;;;3.20;99.90;;;;;;4934424;29;20198;-72
2021/01/27 17:51:23;;;;;;;20.85;17.27;;;3.20;99.90;;;;;;4934084;29;20233;-71
2021/01/27 17:53:50;;;;;;;17.02;14.02;;;3.10;99.90;;;;;;4933703;29;20229;-72
2021/01/27 17:56:16;;;;;;;18.05;14.35;;;3.10;99.90;;;;;;4934343;29;20210;-72
2021/01/27 17:58:43;;;;;;;31.17;19.90;;;3.10;99.90;;;;;;4934422;29;20206;-71
2021/01/27 18:01:09;;;;;;;22.40;16.95;;;3.10;99.90;;;;;;4934608;29;20717;-72